createdAt,value
2023-05-25T00:02:17.774Z,3.53
2023-05-25T00:07:21.499Z,3.50
2023-05-25T00:12:26.890Z,3.58
2023-05-25T00:17:30.615Z,3.72
2023-05-25T00:22:34.630Z,3.42
2023-05-25T00:27:40.081Z,3.60
2023-05-25T00:32:43.744Z,3.95
2023-05-25T00:37:47.569Z,3.60
2023-05-25T00:42:53.980Z,3.35
2023-05-25T00:47:58.603Z,3.53
2023-05-25T00:53:02.452Z,3.70
2023-05-25T00:58:08.695Z,3.88
2023-05-25T01:03:15.628Z,3.70
2023-05-25T01:08:22.728Z,3.90
2023-05-25T01:13:29.542Z,4.40
2023-05-25T01:18:33.244Z,3.90
2023-05-25T01:23:41.643Z,4.07
2023-05-25T01:28:50.383Z,3.80
2023-05-25T01:33:55.713Z,4.00
2023-05-25T01:39:01.425Z,3.90
2023-05-25T01:49:22.909Z,4.38
2023-05-25T01:54:36.398Z,3.70
2023-05-25T01:59:43.230Z,3.42
2023-05-25T02:04:47.965Z,3.85
2023-05-25T02:09:53.274Z,3.73
2023-05-25T02:14:56.957Z,3.42
2023-05-25T02:20:00.838Z,3.63
2023-05-25T02:25:06.968Z,3.80
2023-05-25T02:30:11.048Z,4.45
2023-05-25T02:35:14.801Z,4.03
2023-05-25T02:40:20.279Z,4.50
2023-05-25T02:45:23.932Z,4.20
2023-05-25T02:50:27.615Z,4.60
2023-05-25T02:55:32.917Z,3.72
2023-05-25T03:00:36.632Z,4.00
2023-05-25T03:05:40.350Z,4.00
2023-05-25T03:10:46.102Z,4.38
2023-05-25T03:20:52.621Z,4.03
2023-05-25T03:25:57.994Z,4.40
2023-05-25T03:31:01.705Z,3.97
2023-05-25T03:36:08.613Z,3.95
2023-05-25T03:41:13.994Z,4.10
2023-05-25T03:46:17.759Z,4.18
2023-05-25T03:51:21.451Z,3.75
2023-05-25T03:56:26.752Z,4.30
2023-05-25T04:01:30.417Z,4.05
2023-05-25T04:06:34.108Z,4.38
2023-05-25T04:11:39.427Z,4.25
2023-05-25T04:16:43.164Z,3.70
2023-05-25T04:21:46.963Z,4.22
2023-05-25T04:26:52.312Z,3.95
2023-05-25T04:31:55.986Z,3.85
2023-05-25T04:36:59.668Z,3.95
2023-05-25T04:42:05.286Z,4.28
2023-05-25T04:47:09.100Z,3.95
2023-05-25T04:52:12.972Z,4.15
2023-05-25T04:57:19.200Z,4.35
2023-05-25T05:02:23.700Z,4.22
2023-05-25T05:07:27.448Z,3.97
2023-05-25T05:12:32.800Z,3.83
2023-05-25T05:17:36.555Z,4.10
2023-05-25T05:22:40.268Z,4.40
2023-05-25T05:27:45.673Z,3.95
2023-05-25T05:32:49.406Z,3.97
2023-05-25T05:37:53.101Z,4.00
2023-05-25T05:42:58.391Z,3.83
2023-05-25T05:48:02.113Z,3.77
2023-05-25T05:53:06.130Z,4.65
2023-05-25T05:58:11.378Z,4.18
2023-05-25T06:03:15.150Z,4.30
2023-05-25T06:08:18.844Z,4.10
2023-05-25T06:13:24.186Z,3.67
2023-05-25T06:18:27.862Z,4.20
2023-05-25T06:23:31.619Z,4.22
2023-05-25T06:28:36.943Z,4.35
2023-05-25T06:33:40.619Z,3.97
2023-05-25T06:38:44.295Z,4.15
2023-05-25T06:43:49.640Z,4.00
2023-05-25T06:48:53.349Z,4.33
2023-05-25T06:53:57.045Z,4.50
2023-05-25T06:59:02.451Z,4.50
2023-05-25T07:04:06.241Z,4.40
2023-05-25T07:09:10.744Z,4.90
2023-05-25T07:14:16.070Z,5.05
2023-05-25T07:19:19.723Z,4.80
2023-05-25T07:24:23.375Z,4.72
2023-05-25T07:29:28.686Z,4.22
2023-05-25T07:34:32.533Z,4.30
2023-05-25T07:39:36.228Z,4.95
2023-05-25T07:44:44.276Z,5.07
2023-05-25T07:49:47.946Z,5.03
2023-05-25T07:54:51.657Z,4.93
2023-05-25T07:59:57.135Z,4.85
2023-05-25T08:05:00.816Z,5.40
2023-05-25T08:10:06.225Z,5.10
2023-05-25T08:15:11.786Z,5.10
2023-05-25T08:20:15.997Z,5.32
2023-05-25T08:25:19.901Z,5.07
2023-05-25T08:30:25.293Z,5.13
2023-05-25T08:35:28.935Z,5.03
2023-05-25T08:40:32.825Z,5.40
2023-05-25T08:45:49.336Z,5.15
2023-05-25T08:50:54.285Z,4.57
2023-05-25T08:55:58.249Z,4.68
2023-05-25T09:01:08.295Z,4.43
2023-05-25T09:06:12.155Z,5.40
2023-05-25T09:11:19.439Z,4.22
2023-05-25T09:16:37.909Z,4.68
2023-05-25T09:21:41.660Z,4.80
2023-05-25T09:26:47.685Z,4.68
2023-05-25T09:31:54.417Z,4.63
2023-05-25T09:36:58.614Z,5.43
2023-05-25T09:42:02.791Z,4.18
2023-05-25T09:47:08.795Z,4.43
2023-05-25T09:57:17.973Z,4.68
2023-05-25T10:02:23.364Z,5.25
2023-05-25T10:07:27.702Z,5.07
2023-05-25T10:12:32.303Z,4.60
2023-05-25T10:17:41.007Z,3.80
2023-05-25T10:22:49.064Z,4.35
2023-05-25T10:27:59.727Z,4.60
2023-05-25T10:33:05.834Z,4.15
2023-05-25T10:43:13.355Z,4.45
2023-05-25T10:48:18.922Z,4.22
2023-05-25T10:53:22.687Z,4.15
2023-05-25T10:58:29.128Z,4.20
2023-05-25T11:03:57.004Z,3.55
2023-05-25T11:09:02.413Z,3.70
2023-05-25T11:14:06.039Z,4.40
2023-05-25T11:19:16.482Z,4.00
2023-05-25T11:24:21.203Z,3.85
2023-05-25T11:29:25.176Z,4.03
2023-05-25T11:34:31.920Z,4.35
2023-05-25T11:39:35.628Z,4.50
2023-05-25T11:44:39.268Z,4.28
2023-05-25T11:49:45.285Z,3.55
2023-05-25T11:59:52.985Z,3.95
2023-05-25T12:05:01.451Z,3.40
2023-05-25T12:10:09.181Z,3.85
2023-05-25T12:15:14.404Z,3.45
2023-05-25T12:20:19.981Z,3.37
2023-05-25T12:25:23.876Z,3.25
2023-05-25T12:30:30.187Z,3.90
2023-05-25T12:35:46.791Z,4.13
2023-05-25T12:41:06.036Z,3.60
2023-05-25T12:46:10.128Z,3.60
2023-05-25T12:51:15.533Z,3.55
2023-05-25T12:56:19.214Z,4.03
2023-05-25T13:01:22.919Z,3.70
2023-05-25T13:06:28.278Z,3.88
2023-05-25T13:11:34.393Z,3.30
2023-05-25T13:21:43.526Z,3.47
2023-05-25T13:26:49.229Z,3.70
2023-05-25T13:31:54.466Z,3.80
2023-05-25T13:36:59.777Z,4.40
2023-05-25T13:42:03.440Z,3.73
2023-05-25T13:47:07.717Z,4.07
2023-05-25T13:52:13.217Z,4.30
2023-05-25T13:57:16.939Z,3.88
2023-05-25T14:02:20.649Z,4.10
2023-05-25T14:07:26.021Z,4.05
2023-05-25T14:12:29.679Z,3.07
2023-05-25T14:17:33.419Z,3.78
2023-05-25T14:22:38.766Z,4.30
2023-05-25T14:27:42.426Z,4.10
2023-05-25T14:32:46.059Z,4.63
2023-05-25T14:37:51.724Z,4.10
2023-05-25T14:42:55.480Z,4.15
2023-05-25T14:48:11.877Z,3.67
2023-05-25T14:53:21.617Z,3.75
2023-05-25T14:58:25.311Z,3.90
2023-05-25T15:03:29.109Z,3.53
2023-05-25T15:08:34.461Z,3.97
2023-05-25T15:13:38.108Z,3.73
2023-05-25T15:18:41.771Z,3.95
2023-05-25T15:23:47.071Z,3.50
2023-05-25T15:28:50.779Z,3.50
2023-05-25T15:33:58.541Z,3.95
2023-05-25T15:39:04.620Z,3.97
2023-05-25T15:44:08.724Z,4.10
2023-05-25T15:49:12.355Z,3.60
2023-05-25T15:54:17.687Z,3.88
2023-05-25T15:59:21.378Z,3.53
2023-05-25T16:04:25.001Z,3.80
2023-05-25T16:09:30.353Z,3.47
2023-05-25T16:14:34.070Z,3.60
2023-05-25T16:19:37.781Z,3.60
2023-05-25T16:24:44.062Z,3.30
2023-05-25T16:29:47.713Z,3.03
2023-05-25T16:34:51.375Z,3.45
2023-05-25T16:39:56.793Z,3.35
2023-05-25T16:45:00.504Z,3.30
2023-05-25T16:50:04.313Z,3.25
2023-05-25T16:55:11.779Z,3.22
2023-05-25T17:00:16.364Z,3.33
2023-05-25T17:05:20.054Z,3.40
2023-05-25T17:10:25.400Z,3.40
2023-05-25T17:15:29.111Z,3.50
2023-05-25T17:20:32.826Z,3.20
2023-05-25T17:25:38.185Z,3.10
2023-05-25T17:30:41.791Z,3.45
2023-05-25T17:35:45.538Z,3.45
2023-05-25T17:40:50.966Z,3.45
2023-05-25T17:45:55.478Z,3.03
2023-05-25T17:50:59.155Z,3.10
2023-05-25T17:56:04.497Z,2.92
2023-05-25T18:01:08.353Z,3.50
2023-05-25T18:06:12.288Z,2.65
2023-05-25T18:11:17.623Z,2.30
2023-05-25T18:16:21.369Z,2.47
2023-05-25T18:21:25.065Z,2.80
2023-05-25T18:26:30.338Z,2.60
2023-05-25T18:31:34.200Z,2.60
2023-05-25T18:36:37.928Z,2.47
2023-05-25T18:41:43.376Z,2.80
2023-05-25T18:46:47.078Z,2.83
2023-05-25T18:51:50.817Z,2.70
2023-05-25T18:56:56.132Z,3.10
2023-05-25T19:01:59.936Z,3.00
2023-05-25T19:07:03.578Z,2.85
2023-05-25T19:12:09.486Z,3.05
2023-05-25T19:17:13.174Z,2.85
2023-05-25T19:22:16.906Z,2.72
2023-05-25T19:27:22.193Z,2.47
2023-05-25T19:32:25.868Z,2.47
2023-05-25T19:37:29.531Z,2.30
2023-05-25T19:42:35.872Z,2.53
2023-05-25T19:47:39.557Z,2.80
2023-05-25T19:52:43.330Z,2.33
2023-05-25T19:57:48.652Z,2.60
2023-05-25T20:02:52.771Z,2.40
2023-05-25T20:07:56.454Z,2.72
2023-05-25T20:13:01.777Z,3.05
2023-05-25T20:18:05.581Z,3.60
2023-05-25T20:23:09.215Z,2.97
2023-05-25T20:28:14.523Z,3.20
2023-05-25T20:33:18.378Z,2.92
2023-05-25T20:38:22.042Z,3.17
2023-05-25T20:43:28.292Z,3.30
2023-05-25T20:48:31.947Z,3.28
2023-05-25T20:53:35.582Z,3.05
2023-05-25T20:58:40.918Z,2.70
2023-05-25T21:03:44.807Z,2.35
2023-05-25T21:08:48.557Z,2.42
2023-05-25T21:13:53.880Z,2.55
2023-05-25T21:18:57.525Z,2.60
2023-05-25T21:24:01.440Z,2.70
2023-05-25T21:29:06.788Z,3.10
2023-05-25T21:34:10.453Z,2.95
2023-05-25T21:39:14.804Z,3.00
2023-05-25T21:44:20.098Z,2.90
2023-05-25T21:49:23.750Z,2.45
2023-05-25T21:54:27.419Z,2.70
2023-05-25T21:59:32.743Z,2.45
2023-05-25T22:04:36.418Z,2.45
2023-05-25T22:09:40.754Z,2.53
2023-05-25T22:14:46.083Z,2.55
2023-05-25T22:20:03.197Z,2.30
2023-05-25T22:25:11.504Z,2.67
2023-05-25T22:30:17.955Z,2.70
2023-05-25T22:35:21.844Z,2.38
2023-05-25T22:40:25.618Z,2.75
2023-05-25T22:45:30.971Z,2.50
2023-05-25T22:50:34.786Z,2.40
2023-05-25T22:55:38.441Z,2.40
2023-05-25T23:00:43.752Z,2.30
2023-05-25T23:05:47.610Z,2.33
2023-05-25T23:10:51.474Z,2.80
2023-05-25T23:15:56.828Z,2.42
2023-05-25T23:21:00.478Z,2.45
2023-05-25T23:26:04.177Z,2.80
2023-05-25T23:31:09.560Z,2.75
2023-05-25T23:36:13.236Z,2.75
2023-05-25T23:41:16.982Z,2.63
2023-05-25T23:46:22.380Z,2.90
2023-05-25T23:51:26.289Z,3.13
2023-05-25T23:56:29.931Z,2.80
